createdAt,value
2023-05-19T00:00:17.368Z,71.71
2023-05-19T00:01:17.439Z,71.56
2023-05-19T00:02:17.380Z,71.51
2023-05-19T00:03:17.526Z,71.37
2023-05-19T00:04:17.358Z,71.28
2023-05-19T00:05:17.354Z,71.29
2023-05-19T00:06:17.427Z,71.41
2023-05-19T00:07:17.355Z,71.39
2023-05-19T00:08:17.363Z,71.31
2023-05-19T00:09:17.355Z,71.36
2023-05-19T00:10:17.349Z,71.24
2023-05-19T00:11:17.355Z,71.00
2023-05-19T00:12:17.369Z,71.04
2023-05-19T00:13:17.342Z,71.26
2023-05-19T00:14:17.364Z,71.37
2023-05-19T00:15:17.329Z,71.78
2023-05-19T00:16:17.406Z,71.87
2023-05-19T00:17:17.332Z,71.78
2023-05-19T00:18:17.334Z,71.60
2023-05-19T00:19:17.457Z,71.82
2023-05-19T00:20:17.334Z,71.78
2023-05-19T00:21:17.329Z,71.76
2023-05-19T00:22:17.343Z,71.99
2023-05-19T00:23:17.325Z,71.98
2023-05-19T00:24:17.323Z,72.04
2023-05-19T00:25:17.313Z,71.98
2023-05-19T00:26:17.313Z,71.75
2023-05-19T00:27:17.310Z,71.54
2023-05-19T00:28:17.333Z,71.76
2023-05-19T00:29:17.299Z,71.80
2023-05-19T00:30:17.287Z,71.63
2023-05-19T00:31:17.400Z,71.54
2023-05-19T00:32:17.433Z,71.26
2023-05-19T00:33:17.422Z,71.12
2023-05-19T00:34:17.464Z,70.75
2023-05-19T00:35:17.562Z,70.76
2023-05-19T00:36:17.554Z,70.97
2023-05-19T00:37:17.543Z,71.17
2023-05-19T00:38:17.550Z,71.19
2023-05-19T00:39:17.607Z,71.09
2023-05-19T00:40:17.626Z,71.30
2023-05-19T00:41:17.623Z,71.80
2023-05-19T00:42:17.672Z,72.02
2023-05-19T00:43:17.705Z,71.35
2023-05-19T00:44:17.778Z,71.26
2023-05-19T00:45:17.773Z,71.34
2023-05-19T00:46:17.775Z,71.30
2023-05-19T00:47:17.735Z,71.35
2023-05-19T00:48:16.740Z,71.34
2023-05-19T00:49:17.748Z,71.28
2023-05-19T00:50:17.771Z,71.31
2023-05-19T00:51:17.837Z,71.28
2023-05-19T00:52:17.853Z,71.12
2023-05-19T00:53:17.887Z,71.07
2023-05-19T00:54:17.856Z,70.96
2023-05-19T00:55:17.874Z,70.91
2023-05-19T00:56:17.869Z,70.99
2023-05-19T00:57:17.865Z,70.79
2023-05-19T00:58:17.873Z,70.72
2023-05-19T00:59:17.887Z,70.70
2023-05-19T01:00:17.961Z,70.69
2023-05-19T01:01:18.054Z,70.57
2023-05-19T01:02:18.016Z,70.44
2023-05-19T01:03:18.146Z,70.58
2023-05-19T01:04:18.066Z,70.61
2023-05-19T01:05:18.090Z,70.59
2023-05-19T01:06:18.099Z,70.57
2023-05-19T01:07:18.091Z,70.64
2023-05-19T01:08:18.097Z,70.65
2023-05-19T01:09:18.088Z,70.74
2023-05-19T01:10:18.119Z,70.70
2023-05-19T01:11:18.153Z,70.86
2023-05-19T01:12:18.169Z,71.21
2023-05-19T01:13:18.567Z,71.38
2023-05-19T01:14:18.211Z,71.25
2023-05-19T01:15:18.218Z,71.42
2023-05-19T01:16:18.302Z,71.27
2023-05-19T01:17:18.234Z,71.32
2023-05-19T01:18:18.258Z,71.30
2023-05-19T01:19:18.341Z,71.42
2023-05-19T01:20:18.269Z,71.62
2023-05-19T01:21:18.286Z,71.68
2023-05-19T01:22:18.265Z,71.59
2023-05-19T01:23:18.302Z,71.38
2023-05-19T01:24:18.359Z,71.37
2023-05-19T01:25:18.410Z,71.31
2023-05-19T01:26:18.434Z,71.36
2023-05-19T01:27:18.456Z,71.32
2023-05-19T01:28:18.496Z,71.30
2023-05-19T01:29:18.535Z,71.21
2023-05-19T01:30:18.557Z,71.13
2023-05-19T01:31:18.657Z,70.98
2023-05-19T01:32:18.691Z,70.93
2023-05-19T01:33:18.608Z,70.89
2023-05-19T01:34:18.634Z,70.86
2023-05-19T01:35:18.638Z,71.21
2023-05-19T01:36:18.659Z,71.51
2023-05-19T01:37:18.684Z,71.68
2023-05-19T01:38:18.722Z,71.56
2023-05-19T01:39:18.692Z,71.68
2023-05-19T01:40:18.705Z,71.65
2023-05-19T01:41:18.712Z,71.93
2023-05-19T01:42:18.723Z,71.99
2023-05-19T01:43:18.734Z,72.18
2023-05-19T01:44:18.757Z,72.13
2023-05-19T01:45:18.791Z,72.12
2023-05-19T01:46:18.854Z,72.08
2023-05-19T01:47:18.824Z,72.08
2023-05-19T01:48:18.868Z,72.22
2023-05-19T01:49:18.880Z,72.14
2023-05-19T01:50:18.935Z,72.34
2023-05-19T01:51:19.001Z,72.47
2023-05-19T01:52:19.081Z,72.69
2023-05-19T01:53:19.140Z,72.65
2023-05-19T01:54:19.204Z,72.54
2023-05-19T01:55:19.286Z,72.38
2023-05-19T01:56:19.340Z,72.33
2023-05-19T01:57:19.380Z,72.39
2023-05-19T01:58:19.457Z,72.32
2023-05-19T01:59:19.497Z,72.19
2023-05-19T02:00:21.345Z,72.21
2023-05-19T02:01:19.573Z,72.13
2023-05-19T02:02:19.519Z,71.96
2023-05-19T02:03:19.511Z,71.92
2023-05-19T02:04:19.586Z,72.34
2023-05-19T02:05:19.542Z,72.30
2023-05-19T02:06:19.490Z,72.28
2023-05-19T02:07:19.468Z,72.21
2023-05-19T02:08:19.475Z,72.19
2023-05-19T02:09:19.426Z,72.07
2023-05-19T02:10:19.435Z,72.07
2023-05-19T02:11:19.414Z,72.01
2023-05-19T02:12:19.402Z,71.95
2023-05-19T02:13:19.401Z,71.83
2023-05-19T02:14:19.380Z,71.60
2023-05-19T02:15:19.367Z,71.41
2023-05-19T02:16:19.472Z,71.33
2023-05-19T02:17:19.340Z,71.44
2023-05-19T02:18:19.369Z,71.44
2023-05-19T02:19:19.443Z,71.41
2023-05-19T02:20:19.470Z,71.30
2023-05-19T02:21:19.495Z,71.19
2023-05-19T02:22:19.525Z,71.12
2023-05-19T02:23:19.568Z,71.34
2023-05-19T02:24:19.639Z,71.53
2023-05-19T02:25:19.631Z,71.65
2023-05-19T02:26:19.650Z,71.67
2023-05-19T02:27:19.651Z,71.73
2023-05-19T02:28:19.678Z,71.69
2023-05-19T02:29:19.751Z,71.66
2023-05-19T02:30:19.811Z,71.60
2023-05-19T02:31:19.840Z,71.75
2023-05-19T02:32:19.873Z,71.76
2023-05-19T02:33:19.815Z,71.75
2023-05-19T02:34:19.823Z,71.63
2023-05-19T02:35:19.869Z,71.51
2023-05-19T02:36:19.879Z,71.55
2023-05-19T02:37:19.933Z,71.56
2023-05-19T02:38:19.958Z,71.41
2023-05-19T02:39:20.011Z,71.25
2023-05-19T02:40:20.048Z,71.09
2023-05-19T02:41:20.112Z,70.96
2023-05-19T02:42:20.126Z,70.93
2023-05-19T02:43:20.160Z,70.99
2023-05-19T02:44:20.235Z,71.11
2023-05-19T02:45:20.220Z,71.09
2023-05-19T02:46:20.323Z,70.97
2023-05-19T02:47:20.286Z,70.96
2023-05-19T02:48:20.324Z,70.91
2023-05-19T02:49:20.357Z,70.90
2023-05-19T02:50:20.409Z,70.84
2023-05-19T02:51:20.421Z,70.90
2023-05-19T02:52:20.467Z,70.95
2023-05-19T02:53:20.492Z,71.03
2023-05-19T02:54:20.510Z,70.93
2023-05-19T02:55:20.532Z,70.79
2023-05-19T02:56:20.563Z,70.55
2023-05-19T02:57:20.601Z,70.37
2023-05-19T02:58:20.634Z,70.54
2023-05-19T02:59:20.662Z,70.62
2023-05-19T03:00:20.698Z,70.63
2023-05-19T03:01:20.852Z,70.57
2023-05-19T03:02:20.784Z,70.43
2023-05-19T03:03:20.977Z,70.39
2023-05-19T03:04:20.878Z,70.37
2023-05-19T03:05:20.958Z,70.45
2023-05-19T03:06:20.999Z,70.36
2023-05-19T03:07:21.036Z,70.31
2023-05-19T03:08:21.090Z,70.43
2023-05-19T03:09:21.120Z,70.41
2023-05-19T03:10:21.165Z,70.45
2023-05-19T03:11:21.287Z,70.67
2023-05-19T03:12:21.256Z,70.74
2023-05-19T03:13:21.306Z,70.95
2023-05-19T03:14:21.371Z,70.90
2023-05-19T03:15:21.406Z,70.80
2023-05-19T03:16:21.500Z,70.78
2023-05-19T03:17:21.618Z,70.73
2023-05-19T03:18:21.606Z,70.79
2023-05-19T03:19:21.741Z,70.73
2023-05-19T03:20:21.687Z,70.63
2023-05-19T03:21:21.793Z,70.61
2023-05-19T03:22:21.806Z,70.53
2023-05-19T03:23:21.866Z,70.36
2023-05-19T03:24:21.942Z,70.35
2023-05-19T03:25:21.970Z,70.61
2023-05-19T03:26:22.024Z,70.53
2023-05-19T03:27:22.099Z,70.34
2023-05-19T03:28:22.130Z,70.48
2023-05-19T03:29:22.185Z,70.55
2023-05-19T03:30:22.218Z,70.59
2023-05-19T03:31:22.283Z,70.56
2023-05-19T03:32:22.410Z,70.62
2023-05-19T03:33:22.573Z,70.71
2023-05-19T03:34:22.464Z,70.93
2023-05-19T03:35:22.510Z,70.98
2023-05-19T03:36:22.570Z,70.96
2023-05-19T03:37:22.648Z,70.82
2023-05-19T03:38:22.742Z,70.79
2023-05-19T03:39:22.746Z,70.83
2023-05-19T03:40:22.826Z,70.75
2023-05-19T03:41:22.857Z,70.80
2023-05-19T03:42:22.895Z,70.87
2023-05-19T03:43:22.906Z,71.03
2023-05-19T03:44:22.974Z,71.01
2023-05-19T03:45:23.007Z,71.08
2023-05-19T03:46:23.125Z,71.08
2023-05-19T03:47:23.117Z,71.04
2023-05-19T03:48:23.078Z,71.03
2023-05-19T03:49:23.083Z,71.07
2023-05-19T03:50:23.143Z,71.13
2023-05-19T03:51:23.194Z,71.14
2023-05-19T03:52:23.251Z,71.25
2023-05-19T03:53:23.296Z,71.28
2023-05-19T03:54:23.381Z,71.33
2023-05-19T03:55:23.406Z,71.30
2023-05-19T03:56:23.486Z,71.08
2023-05-19T03:57:23.522Z,71.03
2023-05-19T03:58:23.577Z,71.07
2023-05-19T03:59:23.622Z,70.93
2023-05-19T04:00:23.685Z,71.14
2023-05-19T04:01:23.719Z,71.30
2023-05-19T04:02:23.771Z,71.47
2023-05-19T04:03:23.860Z,71.46
2023-05-19T04:04:23.846Z,71.49
2023-05-19T04:05:23.834Z,71.58
2023-05-19T04:06:23.916Z,71.47
2023-05-19T04:07:23.973Z,71.37
2023-05-19T04:08:24.024Z,71.30
2023-05-19T04:09:24.085Z,71.47
2023-05-19T04:10:24.136Z,71.45
2023-05-19T04:11:24.207Z,71.38
2023-05-19T04:12:24.303Z,71.31
2023-05-19T04:13:24.286Z,71.25
2023-05-19T04:14:24.320Z,71.31
2023-05-19T04:15:24.425Z,71.24
2023-05-19T04:16:24.504Z,71.24
2023-05-19T04:17:24.457Z,71.20
2023-05-19T04:18:25.526Z,71.09
2023-05-19T04:19:24.599Z,71.04
2023-05-19T04:20:24.434Z,71.05
2023-05-19T04:21:24.412Z,71.17
2023-05-19T04:22:24.401Z,71.19
2023-05-19T04:23:24.382Z,71.21
2023-05-19T04:24:24.365Z,71.18
2023-05-19T04:25:24.350Z,71.05
2023-05-19T04:26:24.328Z,71.04
2023-05-19T04:27:24.311Z,71.12
2023-05-19T04:28:24.335Z,71.18
2023-05-19T04:29:24.313Z,71.01
2023-05-19T04:30:24.252Z,70.78
2023-05-19T04:31:24.373Z,70.63
2023-05-19T04:32:24.251Z,70.50
2023-05-19T04:33:24.186Z,70.51
2023-05-19T04:34:24.148Z,70.63
2023-05-19T04:35:24.117Z,70.56
2023-05-19T04:36:24.101Z,70.51
2023-05-19T04:37:24.084Z,70.32
2023-05-19T04:38:24.050Z,70.17
2023-05-19T04:39:24.022Z,70.00
2023-05-19T04:40:24.014Z,69.86
2023-05-19T04:41:23.993Z,69.59
2023-05-19T04:42:23.938Z,69.49
2023-05-19T04:43:23.909Z,69.34
2023-05-19T04:44:23.913Z,69.31
2023-05-19T04:45:23.863Z,69.23
2023-05-19T04:46:23.826Z,68.92
2023-05-19T04:47:23.839Z,68.74
2023-05-19T04:48:23.769Z,68.64
2023-05-19T04:49:23.793Z,68.72
2023-05-19T04:50:23.690Z,68.59
2023-05-19T04:51:23.662Z,68.66
2023-05-19T04:52:23.639Z,68.60
2023-05-19T04:53:23.596Z,68.70
2023-05-19T04:54:23.612Z,68.55
2023-05-19T04:55:23.631Z,68.37
2023-05-19T04:56:23.653Z,68.17
2023-05-19T04:57:23.689Z,68.24
2023-05-19T04:58:23.693Z,68.03
2023-05-19T04:59:23.659Z,68.04
2023-05-19T05:00:23.768Z,67.92
2023-05-19T05:01:23.768Z,68.03
2023-05-19T05:02:23.895Z,68.18
2023-05-19T05:03:23.926Z,68.32
2023-05-19T05:04:23.812Z,68.29
2023-05-19T05:05:23.853Z,68.14
2023-05-19T05:06:23.864Z,67.94
2023-05-19T05:07:23.882Z,67.74
2023-05-19T05:08:23.903Z,67.62
2023-05-19T05:09:23.930Z,67.63
2023-05-19T05:10:23.957Z,67.49
2023-05-19T05:11:23.980Z,67.71
2023-05-19T05:12:24.009Z,67.50
2023-05-19T05:13:24.040Z,67.43
2023-05-19T05:14:24.078Z,67.47
2023-05-19T05:15:24.106Z,67.39
2023-05-19T05:16:24.239Z,67.35
2023-05-19T05:17:24.198Z,67.30
2023-05-19T05:18:24.179Z,67.09
2023-05-19T05:19:24.226Z,67.12
2023-05-19T05:20:24.197Z,66.94
2023-05-19T05:21:24.202Z,66.59
2023-05-19T05:22:24.203Z,66.58
2023-05-19T05:23:24.211Z,66.22
2023-05-19T05:24:24.180Z,66.04
2023-05-19T05:25:24.182Z,66.06
2023-05-19T05:26:24.167Z,65.86
2023-05-19T05:27:24.167Z,65.95
2023-05-19T05:28:24.163Z,65.83
2023-05-19T05:29:24.146Z,65.71
2023-05-19T05:30:24.142Z,65.56
2023-05-19T05:31:24.107Z,65.42
2023-05-19T05:32:24.130Z,65.16
2023-05-19T05:33:24.203Z,65.09
2023-05-19T05:34:23.995Z,64.95
2023-05-19T05:35:23.962Z,64.84
2023-05-19T05:36:23.940Z,64.88
2023-05-19T05:37:23.888Z,64.42
2023-05-19T05:38:23.856Z,64.56
2023-05-19T05:39:23.811Z,64.56
2023-05-19T05:40:23.799Z,64.69
2023-05-19T05:41:23.779Z,64.66
2023-05-19T05:42:23.772Z,64.64
2023-05-19T05:43:23.745Z,64.72
2023-05-19T05:44:23.786Z,64.74
2023-05-19T05:45:23.797Z,64.56
2023-05-19T05:46:24.680Z,64.53
2023-05-19T05:47:23.740Z,64.49
2023-05-19T05:48:23.744Z,64.19
2023-05-19T05:49:23.697Z,63.92
2023-05-19T05:50:23.652Z,63.86
2023-05-19T05:51:23.642Z,63.78
2023-05-19T05:52:23.603Z,63.61
2023-05-19T05:53:23.601Z,63.60
2023-05-19T05:54:23.606Z,63.27
2023-05-19T05:55:23.626Z,62.97
2023-05-19T05:56:23.658Z,62.81
2023-05-19T05:57:23.706Z,62.81
2023-05-19T05:58:23.704Z,62.87
2023-05-19T05:59:23.725Z,62.75
2023-05-19T06:00:23.735Z,62.75
2023-05-19T06:01:23.721Z,63.13
2023-05-19T06:02:23.821Z,63.09
2023-05-19T06:03:23.960Z,63.11
2023-05-19T06:04:23.613Z,63.10
2023-05-19T06:05:23.622Z,63.08
2023-05-19T06:06:23.551Z,62.80
2023-05-19T06:07:23.515Z,62.66
2023-05-19T06:08:23.481Z,62.54
2023-05-19T06:09:23.483Z,62.50
2023-05-19T06:10:23.490Z,62.36
2023-05-19T06:11:23.487Z,62.21
2023-05-19T06:12:23.472Z,62.75
2023-05-19T06:13:23.437Z,62.73
2023-05-19T06:14:23.409Z,62.68
2023-05-19T06:15:23.381Z,62.49
2023-05-19T06:16:23.434Z,62.22
2023-05-19T06:17:23.384Z,62.08
2023-05-19T06:18:23.369Z,62.47
2023-05-19T06:19:23.429Z,62.18
2023-05-19T06:20:23.348Z,62.01
2023-05-19T06:21:23.308Z,62.11
2023-05-19T06:22:23.276Z,61.88
2023-05-19T06:23:23.262Z,61.67
2023-05-19T06:24:23.254Z,61.45
2023-05-19T06:25:23.232Z,61.52
2023-05-19T06:26:23.190Z,61.37
2023-05-19T06:27:23.158Z,61.07
2023-05-19T06:28:23.093Z,60.92
2023-05-19T06:29:23.040Z,60.58
2023-05-19T06:30:22.999Z,60.91
2023-05-19T06:31:23.027Z,60.80
2023-05-19T06:32:23.062Z,60.53
2023-05-19T06:33:22.997Z,61.08
2023-05-19T06:34:22.977Z,61.40
2023-05-19T06:35:22.916Z,61.04
2023-05-19T06:36:22.946Z,60.86
2023-05-19T06:37:22.909Z,60.63
2023-05-19T06:38:22.902Z,60.72
2023-05-19T06:39:22.912Z,60.18
2023-05-19T06:40:22.916Z,60.15
2023-05-19T06:41:22.881Z,60.65
2023-05-19T06:42:22.967Z,60.09
2023-05-19T06:43:22.894Z,59.90
2023-05-19T06:44:22.929Z,60.40
2023-05-19T06:45:22.875Z,60.71
2023-05-19T06:46:22.962Z,60.28
2023-05-19T06:47:22.898Z,60.11
2023-05-19T06:48:22.845Z,60.68
2023-05-19T06:49:22.814Z,61.04
2023-05-19T06:50:22.792Z,60.30
2023-05-19T06:51:22.795Z,59.95
2023-05-19T06:52:22.937Z,59.57
2023-05-19T06:53:22.808Z,59.89
2023-05-19T06:54:22.780Z,60.82
2023-05-19T06:55:22.782Z,60.80
2023-05-19T06:56:22.819Z,61.30
2023-05-19T06:57:23.198Z,62.01
2023-05-19T06:58:22.845Z,61.91
2023-05-19T06:59:22.881Z,62.07
2023-05-19T07:00:24.107Z,62.60
2023-05-19T07:01:23.000Z,63.17
2023-05-19T07:02:22.950Z,63.89
2023-05-19T07:03:23.075Z,63.87
2023-05-19T07:04:23.050Z,64.01
2023-05-19T07:05:23.093Z,63.93
2023-05-19T07:06:23.090Z,63.90
2023-05-19T07:07:23.106Z,63.82
2023-05-19T07:08:23.153Z,63.58
2023-05-19T07:09:23.095Z,63.14
2023-05-19T07:10:23.090Z,62.81
2023-05-19T07:11:23.144Z,62.72
2023-05-19T07:12:23.125Z,63.02
2023-05-19T07:13:24.417Z,63.52
2023-05-19T07:14:23.101Z,63.69
2023-05-19T07:15:23.087Z,63.82
2023-05-19T07:16:23.122Z,63.40
2023-05-19T07:17:23.104Z,63.46
2023-05-19T07:18:23.051Z,63.84
2023-05-19T07:19:23.137Z,64.37
2023-05-19T07:20:22.990Z,64.33
2023-05-19T07:21:22.971Z,65.28
2023-05-19T07:22:22.933Z,64.61
2023-05-19T07:23:22.896Z,64.11
2023-05-19T07:24:22.901Z,63.61
2023-05-19T07:25:22.810Z,63.72
2023-05-19T07:26:22.764Z,63.37
2023-05-19T07:27:22.705Z,62.58
2023-05-19T07:28:22.654Z,62.29
2023-05-19T07:29:22.595Z,61.98
2023-05-19T07:30:22.525Z,61.96
2023-05-19T07:31:22.534Z,61.26
2023-05-19T07:32:22.576Z,61.42
2023-05-19T07:33:22.415Z,61.76
2023-05-19T07:34:22.353Z,62.11
2023-05-19T07:35:22.330Z,62.13
2023-05-19T07:36:22.343Z,61.98
2023-05-19T07:37:22.300Z,61.78
2023-05-19T07:38:22.240Z,61.29
2023-05-19T07:39:23.093Z,61.19
2023-05-19T07:40:22.279Z,60.53
2023-05-19T07:41:22.080Z,60.13
2023-05-19T07:42:22.048Z,59.53
2023-05-19T07:43:22.026Z,59.69
2023-05-19T07:44:22.030Z,59.29
2023-05-19T07:45:21.954Z,59.82
2023-05-19T07:46:21.970Z,60.66
2023-05-19T07:47:21.899Z,60.71
2023-05-19T07:48:21.891Z,59.99
2023-05-19T07:49:21.845Z,59.54
2023-05-19T07:50:21.794Z,59.80
2023-05-19T07:51:21.817Z,60.18
2023-05-19T07:52:21.829Z,59.87
2023-05-19T07:53:21.821Z,59.58
2023-05-19T07:54:21.809Z,58.92
2023-05-19T07:55:21.835Z,59.19
2023-05-19T07:56:21.860Z,59.29
2023-05-19T07:57:21.829Z,59.07
2023-05-19T07:58:21.853Z,59.23
2023-05-19T07:59:21.858Z,58.82
2023-05-19T08:00:21.823Z,58.54
2023-05-19T08:01:21.782Z,58.24
2023-05-19T08:02:21.762Z,58.63
2023-05-19T08:03:21.785Z,58.30
2023-05-19T08:04:21.745Z,58.11
2023-05-19T08:05:21.647Z,57.80
2023-05-19T08:06:21.580Z,57.80
2023-05-19T08:07:21.532Z,57.40
2023-05-19T08:08:21.504Z,57.40
2023-05-19T08:09:21.472Z,56.98
2023-05-19T08:10:21.485Z,56.89
2023-05-19T08:11:21.409Z,56.87
2023-05-19T08:12:21.443Z,56.74
2023-05-19T08:13:21.382Z,57.26
2023-05-19T08:14:21.359Z,56.92
2023-05-19T08:15:21.362Z,56.74
2023-05-19T08:16:21.481Z,57.09
2023-05-19T08:17:21.337Z,56.88
2023-05-19T08:18:21.313Z,55.93
2023-05-19T08:19:21.442Z,55.84
2023-05-19T08:20:21.334Z,56.31
2023-05-19T08:21:21.332Z,56.28
2023-05-19T08:22:21.301Z,56.40
2023-05-19T08:23:21.284Z,55.84
2023-05-19T08:24:21.283Z,54.97
2023-05-19T08:25:21.296Z,55.42
2023-05-19T08:26:21.301Z,54.46
2023-05-19T08:27:21.298Z,54.94
2023-05-19T08:28:21.266Z,55.30
2023-05-19T08:29:21.250Z,55.01
2023-05-19T08:30:21.191Z,56.11
2023-05-19T08:31:21.224Z,55.25
2023-05-19T08:32:21.261Z,54.75
2023-05-19T08:33:21.114Z,54.27
2023-05-19T08:34:21.044Z,53.45
2023-05-19T08:35:20.985Z,52.33
2023-05-19T08:36:20.959Z,52.27
2023-05-19T08:37:20.946Z,51.84
2023-05-19T08:38:20.930Z,51.14
2023-05-19T08:39:20.916Z,51.32
2023-05-19T08:40:21.146Z,51.06
2023-05-19T08:41:20.813Z,50.91
2023-05-19T08:42:20.780Z,50.91
2023-05-19T08:43:20.716Z,50.52
2023-05-19T08:44:20.712Z,49.68
2023-05-19T08:45:20.529Z,49.03
2023-05-19T08:46:20.467Z,49.47
2023-05-19T08:47:20.357Z,49.50
2023-05-19T08:48:20.274Z,50.60
2023-05-19T08:49:20.210Z,50.04
2023-05-19T08:50:20.151Z,49.18
2023-05-19T08:51:20.080Z,48.89
2023-05-19T08:52:20.041Z,49.42
2023-05-19T08:53:32.324Z,49.50
2023-05-19T08:54:19.881Z,50.63
2023-05-19T08:55:19.791Z,49.28
2023-05-19T08:56:19.673Z,48.66
2023-05-19T08:57:19.567Z,47.71
2023-05-19T08:58:19.444Z,47.88
2023-05-19T08:59:19.318Z,48.32
2023-05-19T09:00:19.259Z,47.98
2023-05-19T09:01:19.192Z,48.00
2023-05-19T09:02:19.088Z,48.94
2023-05-19T09:03:23.742Z,49.19
2023-05-19T09:04:18.998Z,50.83
2023-05-19T09:05:18.758Z,51.14
2023-05-19T09:06:19.280Z,51.28
2023-05-19T09:07:18.627Z,49.68
2023-05-19T09:08:18.497Z,49.19
2023-05-19T09:09:18.420Z,49.56
2023-05-19T09:10:18.302Z,49.50
2023-05-19T09:11:18.218Z,49.50
2023-05-19T09:12:18.140Z,48.59
2023-05-19T09:13:18.052Z,48.93
2023-05-19T09:14:17.973Z,49.68
2023-05-19T09:15:17.887Z,49.68
2023-05-19T09:16:18.067Z,50.07
2023-05-19T09:17:17.731Z,50.08
2023-05-19T09:18:17.645Z,49.27
2023-05-19T09:19:17.587Z,49.30
2023-05-19T09:20:17.467Z,49.87
2023-05-19T09:21:17.369Z,49.64
2023-05-19T09:22:17.287Z,49.21
2023-05-19T09:23:17.272Z,48.69
2023-05-19T09:24:17.095Z,48.33
2023-05-19T09:25:17.008Z,48.04
2023-05-19T09:26:16.924Z,47.99
2023-05-19T09:27:16.800Z,48.20
2023-05-19T09:28:16.691Z,47.51
2023-05-19T09:29:16.629Z,47.98
2023-05-19T09:30:16.576Z,48.25
2023-05-19T09:31:16.419Z,48.60
2023-05-19T09:32:16.367Z,48.80
2023-05-19T09:33:16.296Z,49.81
2023-05-19T09:34:16.198Z,49.87
2023-05-19T09:35:16.209Z,51.00
2023-05-19T09:36:16.116Z,51.81
2023-05-19T09:37:16.038Z,50.84
2023-05-19T09:38:15.989Z,50.83
2023-05-19T09:39:15.964Z,51.09
2023-05-19T09:40:15.963Z,51.43
2023-05-19T09:41:15.944Z,50.82
2023-05-19T09:42:15.911Z,51.96
2023-05-19T09:43:15.886Z,50.79
2023-05-19T09:44:15.870Z,51.15
2023-05-19T09:45:15.830Z,51.35
2023-05-19T09:46:15.851Z,50.26
2023-05-19T09:47:15.749Z,50.19
2023-05-19T09:48:15.875Z,49.48
2023-05-19T09:49:15.713Z,49.93
2023-05-19T09:50:15.659Z,49.68
2023-05-19T09:51:15.612Z,48.98
2023-05-19T09:52:15.539Z,49.19
2023-05-19T09:53:15.510Z,50.14
2023-05-19T09:54:15.478Z,50.55
2023-05-19T09:55:15.441Z,49.99
2023-05-19T09:56:15.394Z,49.00
2023-05-19T09:57:15.273Z,49.74
2023-05-19T09:58:15.222Z,49.30
2023-05-19T09:59:15.155Z,49.20
2023-05-19T10:00:15.090Z,49.95
2023-05-19T10:01:15.065Z,48.97
2023-05-19T10:02:15.011Z,49.85
2023-05-19T10:03:15.016Z,50.61
2023-05-19T10:04:15.093Z,49.35
2023-05-19T10:05:15.009Z,48.29
2023-05-19T10:06:14.870Z,50.55
2023-05-19T10:07:14.830Z,50.88
2023-05-19T10:08:14.789Z,50.45
2023-05-19T10:09:14.759Z,50.77
2023-05-19T10:10:14.705Z,51.15
2023-05-19T10:11:14.663Z,51.34
2023-05-19T10:12:14.645Z,50.79
2023-05-19T10:13:14.634Z,49.54
2023-05-19T10:14:14.603Z,49.78
2023-05-19T10:15:14.563Z,49.71
2023-05-19T10:16:14.612Z,51.05
2023-05-19T10:17:14.527Z,50.08
2023-05-19T10:18:14.499Z,50.52
2023-05-19T10:19:14.501Z,50.89
2023-05-19T10:20:14.484Z,50.31
2023-05-19T10:21:14.382Z,49.93
2023-05-19T10:22:14.365Z,50.26
2023-05-19T10:23:14.322Z,50.27
2023-05-19T10:24:14.300Z,50.23
2023-05-19T10:25:14.261Z,50.74
2023-05-19T10:26:14.241Z,50.21
2023-05-19T10:27:14.206Z,50.34
2023-05-19T10:28:14.165Z,51.05
2023-05-19T10:29:14.147Z,51.05
2023-05-19T10:30:15.758Z,50.21
2023-05-19T10:31:14.012Z,50.37
2023-05-19T10:32:13.970Z,50.88
2023-05-19T10:33:13.950Z,52.49
2023-05-19T10:34:13.788Z,50.77
2023-05-19T10:35:13.695Z,50.70
2023-05-19T10:36:13.675Z,50.93
2023-05-19T10:37:13.561Z,51.20
2023-05-19T10:38:13.471Z,50.88
2023-05-19T10:39:13.397Z,52.16
2023-05-19T10:40:13.295Z,50.82
2023-05-19T10:41:13.235Z,50.56
2023-05-19T10:42:13.139Z,50.52
2023-05-19T10:43:13.048Z,49.76
2023-05-19T10:44:12.964Z,50.06
2023-05-19T10:45:12.894Z,50.49
2023-05-19T10:46:12.846Z,50.94
2023-05-19T10:47:12.898Z,51.84
2023-05-19T10:48:12.730Z,50.47
2023-05-19T10:49:12.572Z,50.01
2023-05-19T10:50:12.520Z,49.60
2023-05-19T10:51:12.439Z,49.53
2023-05-19T10:52:12.339Z,49.22
2023-05-19T10:53:12.221Z,49.65
2023-05-19T10:54:13.596Z,50.57
2023-05-19T10:55:12.009Z,50.21
2023-05-19T10:56:11.898Z,49.68
2023-05-19T10:57:11.804Z,48.77
2023-05-19T10:58:11.709Z,48.78
2023-05-19T10:59:11.611Z,49.16
2023-05-19T11:00:11.534Z,49.26
2023-05-19T11:01:11.418Z,50.24
2023-05-19T11:02:11.397Z,49.36
2023-05-19T11:03:11.303Z,51.11
2023-05-19T11:04:11.148Z,49.77
2023-05-19T11:05:11.041Z,49.40
2023-05-19T11:06:10.926Z,49.17
2023-05-19T11:07:10.836Z,49.59
2023-05-19T11:08:10.823Z,49.70
2023-05-19T11:09:10.706Z,50.58
2023-05-19T11:10:10.570Z,49.37
2023-05-19T11:11:10.475Z,49.56
2023-05-19T11:12:10.404Z,50.39
2023-05-19T11:13:10.319Z,50.26
2023-05-19T11:14:10.244Z,50.40
2023-05-19T11:15:10.181Z,50.73
2023-05-19T11:16:10.144Z,50.89
2023-05-19T11:17:10.065Z,50.56
2023-05-19T11:18:10.055Z,51.54
2023-05-19T11:19:09.962Z,52.17
2023-05-19T11:20:09.868Z,52.56
2023-05-19T11:21:09.812Z,50.99
2023-05-19T11:22:09.719Z,50.93
2023-05-19T11:23:09.824Z,50.87
2023-05-19T11:24:09.708Z,50.78
2023-05-19T11:25:09.483Z,52.13
2023-05-19T11:26:09.417Z,51.72
2023-05-19T11:27:09.342Z,51.12
2023-05-19T11:28:09.326Z,50.94
2023-05-19T11:29:09.288Z,50.70
2023-05-19T11:30:09.327Z,50.15
2023-05-19T11:31:09.230Z,51.23
2023-05-19T11:32:09.323Z,51.18
2023-05-19T11:33:09.270Z,52.23
2023-05-19T11:34:09.141Z,52.19
2023-05-19T11:35:09.103Z,52.35
2023-05-19T11:36:09.043Z,51.84
2023-05-19T11:37:09.003Z,51.24
2023-05-19T11:38:08.981Z,51.65
2023-05-19T11:39:08.941Z,53.05
2023-05-19T11:40:08.957Z,52.06
2023-05-19T11:41:08.913Z,52.53
2023-05-19T11:42:08.869Z,51.50
2023-05-19T11:43:08.838Z,52.65
2023-05-19T11:44:08.799Z,52.38
2023-05-19T11:45:08.754Z,53.16
2023-05-19T11:46:08.798Z,51.53
2023-05-19T11:47:08.825Z,52.16
2023-05-19T11:48:08.691Z,51.80
2023-05-19T11:49:08.640Z,51.82
2023-05-19T11:50:08.633Z,52.01
2023-05-19T11:51:08.620Z,52.58
2023-05-19T11:52:08.592Z,51.68
2023-05-19T11:53:08.548Z,50.85
2023-05-19T11:54:08.532Z,50.60
2023-05-19T11:55:08.516Z,50.06
2023-05-19T11:56:08.516Z,50.96
2023-05-19T11:57:08.456Z,50.08
2023-05-19T11:58:08.411Z,50.98
2023-05-19T11:59:08.385Z,51.69
2023-05-19T12:00:08.342Z,52.03
2023-05-19T12:01:08.336Z,51.46
2023-05-19T12:02:08.425Z,51.37
2023-05-19T12:03:08.882Z,50.81
2023-05-19T12:04:08.294Z,51.46
2023-05-19T12:05:08.241Z,52.47
2023-05-19T12:06:08.155Z,51.74
2023-05-19T12:07:08.114Z,51.18
2023-05-19T12:08:08.007Z,51.68
2023-05-19T12:09:07.942Z,52.80
2023-05-19T12:10:07.906Z,52.53
2023-05-19T12:11:07.887Z,52.22
2023-05-19T12:12:07.922Z,52.79
2023-05-19T12:13:07.834Z,52.67
2023-05-19T12:14:07.829Z,53.09
2023-05-19T12:15:07.818Z,52.89
2023-05-19T12:16:07.844Z,53.06
2023-05-19T12:17:07.779Z,53.84
2023-05-19T12:18:07.902Z,53.61
2023-05-19T12:19:07.790Z,53.80
2023-05-19T12:20:07.732Z,54.65
2023-05-19T12:21:07.712Z,54.60
2023-05-19T12:22:07.686Z,54.32
2023-05-19T12:23:07.688Z,53.89
2023-05-19T12:24:07.587Z,53.61
2023-05-19T12:25:07.624Z,53.88
2023-05-19T12:26:07.588Z,54.18
2023-05-19T12:27:07.526Z,54.03
2023-05-19T12:28:07.554Z,54.67
2023-05-19T12:29:07.515Z,54.44
2023-05-19T12:30:07.471Z,54.14
2023-05-19T12:31:07.437Z,54.03
2023-05-19T12:32:07.515Z,53.76
2023-05-19T12:33:07.394Z,54.32
2023-05-19T12:34:07.358Z,54.56
2023-05-19T12:35:07.363Z,54.63
2023-05-19T12:36:07.316Z,54.65
2023-05-19T12:37:07.307Z,54.88
2023-05-19T12:38:07.308Z,53.93
2023-05-19T12:39:07.215Z,53.83
2023-05-19T12:40:07.199Z,53.67
2023-05-19T12:41:07.157Z,53.99
2023-05-19T12:42:07.118Z,54.18
2023-05-19T12:43:07.104Z,54.23
2023-05-19T12:44:07.227Z,53.82
2023-05-19T12:45:07.048Z,53.70
2023-05-19T12:46:07.084Z,53.99
2023-05-19T12:47:06.979Z,54.30
2023-05-19T12:48:07.077Z,54.56
2023-05-19T12:49:06.919Z,54.72
2023-05-19T12:50:06.909Z,54.23
2023-05-19T12:51:06.875Z,54.46
2023-05-19T12:52:11.753Z,53.62